Rochester/St. Mary\'s Hospita, MN

11:23 PM CST on December 12, 2019 (GMT -0600)
Rochester/St. Mary\'s Hospita

Weather History for K9MN - October, 2019

Change the Weather History Date:

Tuesday, October 8, 2019

  Actual Average (KRST) Record (KRST)
Temperature  
Mean Temperature 58 °F -  
Max Temperature 69 °F 60 °F 88 °F (1916)
Min Temperature 46 °F 39 °F 21 °F (1976)
Degree Days  
Heating Degree Days 8    
Growing Degree Days 8 (Base 50)    
Moisture  
Dew Point 39 °F    
Average Humidity 52    
Maximum Humidity 75    
Minimum Humidity 30    
Precipitation  
Precipitation 0.00 in - - ()
Sea Level Pressure  
Sea Level Pressure 30.05 in    
Wind  
Wind Speed 10 mph (SSE)    
Max Wind Speed 21 mph    
Max Gust Speed 31 mph    
Visibility 10 miles    
Events      
Averages and records for this station are not official NWS values.
T = Trace of Precipitation, MM = Missing Value Source: NWS Daily Summary

Daily Weather History Graph

Daily Weather History Graph

Search for Another Location

Airport or City:

Astronomy

Oct. 08, 2019 Rise Set
Actual Time 7:15 AM CDT 6:38 PM CDT
Civil Twilight 6:46 AM CDT 7:07 PM CDT
Nautical Twilight 6:13 AM CDT 7:40 PM CDT
Astronomical Twilight 5:39 AM CDT 8:14 PM CDT
Moon 4:50 PM CDT (10/8) 1:51 AM CDT (10/8)
Length of Visible Light 12h 20m
Length of Day
11h 22m
Waxing Gibbous, 78% of the Moon is Illuminated
Oct 8
Waxing Gibbous
Oct 13
Full
Oct 21
Last Quarter
Oct 27
New
Nov 4
First Quarter

Hourly Weather History & Observations

Time (CDT) Temp. Dew Point Humidity Pressure Visibility Wind Dir Wind Speed Gust Speed Precip Events Conditions
12:15 AM 50.0 °F 37.9 °F 63% 30.12 in 10.0 mi SE 10.4 mph - N/A   Clear
12:35 AM 50.0 °F 37.8 °F 63% 30.12 in 10.0 mi SE 10.4 mph - N/A   Clear
12:55 AM 49.6 °F 37.8 °F 64% 30.11 in 10.0 mi SE 9.2 mph - N/A   Clear
12:56 AM 49.6 °F 37.8 °F 64% 30.11 in 10.0 mi SE 9.2 mph - N/A   Clear
1:15 AM 49.3 °F 37.6 °F 64% 30.11 in 10.0 mi SE 9.2 mph - N/A   Clear
1:16 AM 49.3 °F 37.6 °F 64% 30.11 in 10.0 mi SE 9.2 mph - N/A   Clear
1:35 AM 49.3 °F 37.6 °F 64% 30.11 in 10.0 mi SE 9.2 mph - N/A   Clear
1:55 AM 49.3 °F 37.6 °F 64% 30.11 in 10.0 mi SE 8.1 mph - N/A   Clear
2:15 AM 49.5 °F 37.8 °F 64% 30.11 in 10.0 mi SE 9.2 mph - N/A   Clear
2:35 AM 49.6 °F 37.8 °F 64% 30.11 in 10.0 mi SE 9.2 mph - N/A   Clear
2:36 AM 49.6 °F 37.8 °F 64% 30.11 in 10.0 mi SE 9.2 mph - N/A   Clear
2:55 AM 50.0 °F 37.9 °F 63% 30.11 in 10.0 mi SE 6.9 mph - N/A   Clear
2:56 AM 50.0 °F 37.9 °F 63% 30.11 in 10.0 mi SE 8.1 mph - N/A   Clear
3:15 AM 49.5 °F 38.3 °F 65% 30.10 in 10.0 mi SE 9.2 mph - N/A   Clear
3:35 AM 49.5 °F 38.5 °F 66% 30.10 in 10.0 mi SE 5.8 mph - N/A   Clear
3:55 AM 49.5 °F 38.5 °F 66% 30.10 in 10.0 mi SE 4.6 mph - N/A   Clear
3:56 AM 49.5 °F 38.5 °F 66% 30.10 in 10.0 mi SSE 4.6 mph - N/A   Clear
4:15 AM 49.3 °F 38.5 °F 66% 30.10 in 10.0 mi SE 4.6 mph - N/A   Clear
4:16 AM 49.1 °F 38.5 °F 67% 30.10 in 10.0 mi SE 4.6 mph - N/A   Clear
4:35 AM 47.8 °F 38.8 °F 71% 30.10 in 10.0 mi ESE 5.8 mph - N/A   Clear
4:55 AM 47.3 °F 38.8 °F 72% 30.10 in 10.0 mi SE 4.6 mph - N/A   Clear
5:15 AM 46.9 °F 39.2 °F 74% 30.10 in 10.0 mi ESE 5.8 mph - N/A   Clear
5:16 AM 46.9 °F 39.2 °F 74% 30.10 in 10.0 mi ESE 5.8 mph - N/A   Clear
5:35 AM 47.5 °F 38.7 °F 71% 30.10 in 10.0 mi SE 5.8 mph - N/A   Clear
5:36 AM 47.5 °F 38.7 °F 71% 30.10 in 10.0 mi SE 5.8 mph - N/A   Clear
5:55 AM 46.8 °F 38.8 °F 74% 30.10 in 10.0 mi ESE 5.8 mph - N/A   Clear
6:15 AM 46.9 °F 39.2 °F 74% 30.10 in 10.0 mi SE 5.8 mph - N/A   Clear
6:35 AM 46.9 °F 39.2 °F 74% 30.09 in 10.0 mi ESE 4.6 mph - N/A   Clear
6:36 AM 46.9 °F 39.2 °F 74% 30.09 in 10.0 mi SE 4.6 mph - N/A   Clear
6:55 AM 46.6 °F 39.2 °F 75% 30.10 in 10.0 mi Calm Calm - N/A   Clear
7:15 AM 46.6 °F 39.2 °F 75% 30.10 in 10.0 mi SE 3.5 mph - N/A   Clear
7:35 AM 47.8 °F 39.2 °F 72% 30.10 in 10.0 mi SSE 5.8 mph - N/A   Clear
7:55 AM 49.3 °F 39.2 °F 68% 30.09 in 10.0 mi South 6.9 mph - N/A   Clear
7:56 AM 49.3 °F 39.2 °F 68% 30.09 in 10.0 mi South 6.9 mph - N/A   Clear
8:15 AM 50.7 °F 39.2 °F 65% 30.09 in 10.0 mi SSE 11.5 mph 18.4 mph N/A   Clear
8:16 AM 50.9 °F 39.2 °F 64% 30.09 in 10.0 mi SSE 9.2 mph 18.4 mph N/A   Clear
8:35 AM 51.4 °F 39.2 °F 63% 30.10 in 10.0 mi SSE 6.9 mph - N/A   Clear
8:55 AM 52.7 °F 39.2 °F 60% 30.10 in 10.0 mi South 6.9 mph - N/A   Clear
9:15 AM 53.8 °F 39.6 °F 59% 30.10 in 10.0 mi South 6.9 mph 16.1 mph N/A   Clear
9:16 AM 54.0 °F 39.6 °F 58% 30.10 in 10.0 mi South 9.2 mph 16.1 mph N/A   Clear
9:35 AM 55.4 °F 40.1 °F 56% 30.10 in 10.0 mi SSE 8.1 mph - N/A   Clear
9:36 AM 55.4 °F 40.1 °F 56% 30.09 in 10.0 mi SSE 8.1 mph - N/A   Clear
9:55 AM 57.4 °F 40.5 °F 53% 30.09 in 10.0 mi SSE 8.1 mph - N/A   Clear
10:15 AM 59.7 °F 40.1 °F 48% 30.09 in 10.0 mi South 8.1 mph 17.3 mph N/A   Clear
10:35 AM 61.3 °F 38.1 °F 42% 30.09 in 10.0 mi South 12.7 mph 23.0 mph N/A   Clear
10:36 AM 61.3 °F 38.1 °F 42% 30.09 in 10.0 mi South 13.8 mph 23.0 mph N/A   Clear
10:55 AM 62.6 °F 37.9 °F 40% 30.09 in 10.0 mi South 17.3 mph 24.2 mph N/A   Clear
10:56 AM 62.6 °F 37.8 °F 40% 30.08 in 10.0 mi South 19.6 mph 25.3 mph N/A   Clear
11:15 AM 63.5 °F 38.3 °F 39% 30.08 in 10.0 mi South 15.0 mph 23.0 mph N/A   Clear
11:35 AM 64.2 °F 37.9 °F 38% 30.08 in 10.0 mi South 18.4 mph 27.6 mph N/A   Clear
11:55 AM 65.3 °F 38.7 °F 38% 30.07 in 10.0 mi South 11.5 mph 21.9 mph N/A   Clear
12:15 PM 66.2 °F 37.2 °F 34% 30.06 in 10.0 mi South 17.3 mph 28.8 mph N/A   Clear
12:16 PM 66.2 °F 37.0 °F 34% 30.07 in 10.0 mi SSE 20.7 mph 28.8 mph N/A   Clear
12:35 PM 66.2 °F 36.9 °F 34% 30.06 in 10.0 mi South 17.3 mph 28.8 mph N/A   Clear
12:55 PM 66.2 °F 35.8 °F 32% 30.05 in 10.0 mi South 18.4 mph 26.5 mph N/A   Clear
1:15 PM 67.3 °F 36.7 °F 32% 30.05 in 10.0 mi South 12.7 mph 28.8 mph N/A   Clear
1:16 PM 67.5 °F 36.7 °F 32% 30.05 in 10.0 mi SSE 19.6 mph 31.1 mph N/A   Clear
1:35 PM 66.9 °F 36.7 °F 33% 30.04 in 10.0 mi South 17.3 mph 29.9 mph N/A   Clear
1:36 PM 66.9 °F 36.7 °F 33% 30.03 in 10.0 mi South 16.1 mph 29.9 mph N/A   Clear
1:55 PM 67.1 °F 37.4 °F 34% 30.02 in 10.0 mi SSE 16.1 mph 27.6 mph N/A   Clear
1:56 PM 67.1 °F 37.2 °F 33% 30.02 in 10.0 mi SSE 16.1 mph 27.6 mph N/A   Clear
2:15 PM 68.0 °F 36.3 °F 31% 30.01 in 10.0 mi SSE 15.0 mph 29.9 mph N/A   Clear
2:35 PM 68.9 °F 36.7 °F 31% 30.00 in 10.0 mi SSE 15.0 mph 24.2 mph N/A   Clear
2:55 PM 68.9 °F 36.1 °F 30% 30.00 in 10.0 mi SSE 16.1 mph 26.5 mph N/A   Clear
2:56 PM 68.9 °F 36.1 °F 30% 30.00 in 10.0 mi SSE 16.1 mph 26.5 mph N/A   Clear
3:15 PM 69.1 °F 36.7 °F 30% 29.99 in 10.0 mi South 9.2 mph 24.2 mph N/A   Clear
3:16 PM 69.1 °F 36.9 °F 31% 30.00 in 10.0 mi SSE 13.8 mph 25.3 mph N/A   Clear
3:35 PM 68.9 °F 37.0 °F 31% 29.99 in 10.0 mi SSE 9.2 mph 25.3 mph N/A   Clear
3:55 PM 68.9 °F 36.9 °F 31% 29.98 in 10.0 mi SE 15.0 mph 28.8 mph N/A   Clear
4:15 PM 68.9 °F 37.8 °F 32% 29.99 in 10.0 mi SSE 15.0 mph 23.0 mph N/A   Clear
4:16 PM 68.7 °F 37.8 °F 32% 29.98 in 10.0 mi SSE 16.1 mph 23.0 mph N/A   Clear
4:35 PM 68.5 °F 37.4 °F 32% 29.98 in 10.0 mi SSE 18.4 mph 25.3 mph N/A   Clear
4:36 PM 68.5 °F 37.4 °F 32% 29.98 in 10.0 mi SSE 17.3 mph 25.3 mph N/A   Clear
4:55 PM 68.5 °F 38.3 °F 33% 29.98 in 10.0 mi South 11.5 mph 19.6 mph N/A   Clear
5:15 PM 67.5 °F 38.5 °F 35% 29.98 in 10.0 mi SSE 12.7 mph 23.0 mph N/A   Clear
5:35 PM 67.1 °F 38.3 °F 35% 29.98 in 10.0 mi SSE 12.7 mph 27.6 mph N/A   Clear
5:55 PM 66.6 °F 38.3 °F 35% 29.98 in 10.0 mi SSE 12.7 mph 21.9 mph N/A   Clear
5:56 PM 66.6 °F 38.3 °F 35% 29.98 in 10.0 mi SSE 12.7 mph 20.7 mph N/A   Clear
6:15 PM 65.7 °F 38.8 °F 37% 29.98 in 10.0 mi SSE 8.1 mph 18.4 mph N/A   Clear
6:35 PM 64.4 °F 38.8 °F 39% 29.98 in 10.0 mi SSE 8.1 mph - N/A   Clear
6:55 PM 63.5 °F 38.8 °F 40% 29.98 in 10.0 mi SE 10.4 mph 16.1 mph N/A   Clear
6:56 PM 63.3 °F 38.8 °F 40% 29.98 in 10.0 mi SE 9.2 mph 16.1 mph N/A   Clear
7:15 PM 62.1 °F 39.2 °F 43% 29.98 in 10.0 mi SE 10.4 mph - N/A   Clear
7:16 PM 61.9 °F 39.2 °F 43% 29.98 in 10.0 mi SE 10.4 mph - N/A   Clear
7:35 PM 60.8 °F 39.7 °F 46% 29.98 in 10.0 mi SE 10.4 mph - N/A   Clear
7:55 PM 60.1 °F 40.1 °F 48% 29.98 in 10.0 mi SE 10.4 mph - N/A   Clear
8:15 PM 59.9 °F 39.6 °F 47% 29.98 in 10.0 mi SE 11.5 mph 17.3 mph N/A   Clear
8:16 PM 59.9 °F 39.6 °F 47% 29.98 in 10.0 mi SE 10.4 mph 17.3 mph N/A   Clear
8:35 PM 59.5 °F 39.7 °F 48% 29.98 in 10.0 mi SE 9.2 mph - N/A   Clear
8:36 PM 59.5 °F 39.7 °F 48% 29.98 in 10.0 mi SE 10.4 mph - N/A   Clear
9:15 PM 58.1 °F 40.3 °F 52% 29.99 in 10.0 mi SE 8.1 mph - N/A   Clear
9:35 PM 57.7 °F 41.0 °F 54% 29.99 in 10.0 mi SE 9.2 mph - N/A   Clear
9:36 PM 57.7 °F 41.0 °F 54% 29.99 in 10.0 mi SE 11.5 mph 16.1 mph N/A   Clear
9:55 PM 57.2 °F 41.2 °F 55% 29.99 in 10.0 mi SSE 11.5 mph 16.1 mph N/A   Clear
9:56 PM 57.2 °F 41.2 °F 55% 29.99 in 10.0 mi SSE 11.5 mph 16.1 mph N/A   Clear
10:15 PM 57.2 °F 41.4 °F 55% 29.99 in 10.0 mi SE 11.5 mph 16.1 mph N/A   Clear
10:35 PM 57.2 °F 41.4 °F 55% 29.99 in 10.0 mi SSE 10.4 mph 20.7 mph N/A   Clear
10:55 PM 56.7 °F 41.5 °F 57% 29.99 in 10.0 mi SSE 10.4 mph - N/A   Clear
10:56 PM 56.7 °F 41.7 °F 57% 29.99 in 10.0 mi SE 8.1 mph - N/A   Clear
11:15 PM 56.1 °F 41.9 °F 59% 29.99 in 10.0 mi SSE 9.2 mph 17.3 mph N/A   Clear
11:16 PM 56.1 °F 41.9 °F 59% 29.99 in 10.0 mi SE 10.4 mph 17.3 mph N/A   Clear
11:35 PM 55.6 °F 42.1 °F 60% 29.99 in 10.0 mi SSE 10.4 mph 16.1 mph N/A   Clear
11:55 PM 55.4 °F 42.1 °F 61% 29.99 in 10.0 mi SSE 10.4 mph 17.3 mph N/A   Clear